City Bell, Argentina
Current Conditions -  °F | °C
As of 2:00 PM on Sunday 21 Dec 2014 (Local Time) from SAEZ Reporting Station
Scattered Clouds Scattered Clouds  
Wind Chill: 72°   Ceiling: Unl
Heat Index: 72°   Visibility: 6mi
Dew Point: 50°   Wind: 16mph
Humidity: 46%   Direction: 210°SSW
Pressure: 29.77"   Gusts: NA
Location:  34.87°S, 58.05°W
Report Text: SAEZ 211700Z 21014KT 140V240 9999 SCT042 22/10 Q1008
Loading
Personal Weather Stations






























Interactive Weather Map New forecast layout! Learn more

10-Day Weather Forecast

Advertisements
Track Severe Weather on mobile